sensor_id;sensor_type;location;lat;lon;timestamp;P1;durP1;ratioP1;P2;durP2;ratioP2
33104;SDS011;19476;51.448;6.674;2023-06-04T00:01:42;1.98;;;0.65;;
33104;SDS011;19476;51.448;6.674;2023-06-04T00:10:35;2.20;;;0.80;;
33104;SDS011;19476;51.448;6.674;2023-06-04T00:13:01;2.00;;;1.00;;
33104;SDS011;19476;51.448;6.674;2023-06-04T00:15:27;1.63;;;0.77;;
33104;SDS011;19476;51.448;6.674;2023-06-04T00:17:56;1.77;;;0.80;;
33104;SDS011;19476;51.448;6.674;2023-06-04T00:20:22;1.70;;;0.90;;
33104;SDS011;19476;51.448;6.674;2023-06-04T00:22:47;2.80;;;0.98;;
33104;SDS011;19476;51.448;6.674;2023-06-04T00:25:29;4.00;;;0.80;;
33104;SDS011;19476;51.448;6.674;2023-06-04T00:28:04;2.03;;;0.90;;
33104;SDS011;19476;51.448;6.674;2023-06-04T00:30:30;2.47;;;0.93;;
33104;SDS011;19476;51.448;6.674;2023-06-04T00:33:18;1.95;;;1.00;;
33104;SDS011;19476;51.448;6.674;2023-06-04T00:35:55;3.78;;;0.90;;
33104;SDS011;19476;51.448;6.674;2023-06-04T00:38:22;2.53;;;0.95;;
33104;SDS011;19476;51.448;6.674;2023-06-04T00:40:47;2.72;;;1.05;;
33104;SDS011;19476;51.448;6.674;2023-06-04T00:43:19;2.67;;;1.00;;
33104;SDS011;19476;51.448;6.674;2023-06-04T00:45:48;3.58;;;1.00;;
33104;SDS011;19476;51.448;6.674;2023-06-04T00:48:15;2.60;;;0.98;;
33104;SDS011;19476;51.448;6.674;2023-06-04T00:50:41;2.60;;;1.08;;
33104;SDS011;19476;51.448;6.674;2023-06-04T00:55:45;2.53;;;0.90;;
33104;SDS011;19476;51.448;6.674;2023-06-04T00:58:14;2.72;;;0.98;;
33104;SDS011;19476;51.448;6.674;2023-06-04T01:03:38;2.50;;;1.23;;
33104;SDS011;19476;51.448;6.674;2023-06-04T01:06:19;2.28;;;0.90;;
33104;SDS011;19476;51.448;6.674;2023-06-04T01:08:53;3.22;;;0.80;;
33104;SDS011;19476;51.448;6.674;2023-06-04T01:11:32;1.20;;;0.53;;
33104;SDS011;19476;51.448;6.674;2023-06-04T01:14:03;1.85;;;0.82;;
33104;SDS011;19476;51.448;6.674;2023-06-04T01:16:32;1.02;;;0.57;;
33104;SDS011;19476;51.448;6.674;2023-06-04T01:19:04;1.52;;;0.80;;
33104;SDS011;19476;51.448;6.674;2023-06-04T01:21:50;1.48;;;0.60;;
33104;SDS011;19476;51.448;6.674;2023-06-04T01:24:19;1.42;;;0.55;;
33104;SDS011;19476;51.448;6.674;2023-06-04T01:26:47;5.95;;;0.95;;
33104;SDS011;19476;51.448;6.674;2023-06-04T01:29:15;3.80;;;0.90;;
33104;SDS011;19476;51.448;6.674;2023-06-04T01:31:41;2.50;;;1.10;;
33104;SDS011;19476;51.448;6.674;2023-06-04T01:34:07;1.83;;;0.60;;
33104;SDS011;19476;51.448;6.674;2023-06-04T01:36:33;1.50;;;0.73;;
33104;SDS011;19476;51.448;6.674;2023-06-04T01:38:59;2.83;;;0.85;;
33104;SDS011;19476;51.448;6.674;2023-06-04T01:41:25;2.20;;;1.00;;
33104;SDS011;19476;51.448;6.674;2023-06-04T01:43:51;2.78;;;0.90;;
33104;SDS011;19476;51.448;6.674;2023-06-04T01:46:17;5.53;;;1.52;;
33104;SDS011;19476;51.448;6.674;2023-06-04T01:48:42;3.22;;;1.27;;
33104;SDS011;19476;51.448;6.674;2023-06-04T01:51:08;2.10;;;0.70;;
33104;SDS011;19476;51.448;6.674;2023-06-04T01:53:34;1.50;;;0.75;;
33104;SDS011;19476;51.448;6.674;2023-06-04T01:56:00;2.53;;;0.70;;
33104;SDS011;19476;51.448;6.674;2023-06-04T01:58:26;1.73;;;0.70;;
33104;SDS011;19476;51.448;6.674;2023-06-04T02:00:54;4.15;;;0.82;;
33104;SDS011;19476;51.448;6.674;2023-06-04T02:03:20;2.08;;;0.70;;
33104;SDS011;19476;51.448;6.674;2023-06-04T02:05:47;2.17;;;0.80;;
33104;SDS011;19476;51.448;6.674;2023-06-04T02:08:17;3.15;;;0.85;;
33104;SDS011;19476;51.448;6.674;2023-06-04T02:10:46;1.63;;;0.70;;
33104;SDS011;19476;51.448;6.674;2023-06-04T02:13:13;3.25;;;0.80;;
33104;SDS011;19476;51.448;6.674;2023-06-04T02:15:40;1.70;;;0.80;;
33104;SDS011;19476;51.448;6.674;2023-06-04T02:20:45;1.52;;;0.80;;
33104;SDS011;19476;51.448;6.674;2023-06-04T02:23:11;1.00;;;0.68;;
33104;SDS011;19476;51.448;6.674;2023-06-04T02:25:37;1.52;;;0.65;;
33104;SDS011;19476;51.448;6.674;2023-06-04T02:28:03;1.00;;;0.50;;
33104;SDS011;19476;51.448;6.674;2023-06-04T02:30:29;3.45;;;0.80;;
33104;SDS011;19476;51.448;6.674;2023-06-04T02:32:55;1.50;;;0.80;;
33104;SDS011;19476;51.448;6.674;2023-06-04T02:35:21;0.80;;;0.50;;
33104;SDS011;19476;51.448;6.674;2023-06-04T02:37:48;1.17;;;0.50;;
33104;SDS011;19476;51.448;6.674;2023-06-04T02:40:14;1.25;;;0.50;;
33104;SDS011;19476;51.448;6.674;2023-06-04T02:42:40;1.48;;;0.60;;
33104;SDS011;19476;51.448;6.674;2023-06-04T02:45:06;2.22;;;0.82;;
33104;SDS011;19476;51.448;6.674;2023-06-04T02:47:32;1.75;;;0.80;;
33104;SDS011;19476;51.448;6.674;2023-06-04T02:49:58;1.60;;;0.80;;
33104;SDS011;19476;51.448;6.674;2023-06-04T02:52:24;1.92;;;0.88;;
33104;SDS011;19476;51.448;6.674;2023-06-04T02:54:50;1.98;;;0.70;;
33104;SDS011;19476;51.448;6.674;2023-06-04T02:57:16;1.77;;;0.68;;
33104;SDS011;19476;51.448;6.674;2023-06-04T02:59:42;1.65;;;0.82;;
33104;SDS011;19476;51.448;6.674;2023-06-04T03:02:08;2.10;;;0.75;;
33104;SDS011;19476;51.448;6.674;2023-06-04T03:04:34;2.83;;;0.75;;
33104;SDS011;19476;51.448;6.674;2023-06-04T03:07:03;3.47;;;1.10;;
33104;SDS011;19476;51.448;6.674;2023-06-04T03:09:30;2.45;;;0.90;;
33104;SDS011;19476;51.448;6.674;2023-06-04T03:12:05;2.28;;;0.77;;
33104;SDS011;19476;51.448;6.674;2023-06-04T03:14:31;3.20;;;1.10;;
33104;SDS011;19476;51.448;6.674;2023-06-04T03:16:58;2.20;;;0.90;;
33104;SDS011;19476;51.448;6.674;2023-06-04T03:19:36;2.25;;;1.00;;
33104;SDS011;19476;51.448;6.674;2023-06-04T03:22:03;2.88;;;1.00;;
33104;SDS011;19476;51.448;6.674;2023-06-04T03:24:36;3.00;;;1.10;;
33104;SDS011;19476;51.448;6.674;2023-06-04T03:27:04;1.58;;;0.90;;
33104;SDS011;19476;51.448;6.674;2023-06-04T03:29:30;2.17;;;0.98;;
33104;SDS011;19476;51.448;6.674;2023-06-04T03:32:01;4.10;;;1.40;;
33104;SDS011;19476;51.448;6.674;2023-06-04T03:34:27;1.88;;;1.17;;
33104;SDS011;19476;51.448;6.674;2023-06-04T03:36:56;1.98;;;0.90;;
33104;SDS011;19476;51.448;6.674;2023-06-04T03:39:23;1.77;;;0.88;;
33104;SDS011;19476;51.448;6.674;2023-06-04T03:41:49;3.13;;;0.90;;
33104;SDS011;19476;51.448;6.674;2023-06-04T03:44:15;2.35;;;1.05;;
33104;SDS011;19476;51.448;6.674;2023-06-04T03:46:42;1.92;;;1.10;;
33104;SDS011;19476;51.448;6.674;2023-06-04T03:49:09;2.45;;;0.88;;
33104;SDS011;19476;51.448;6.674;2023-06-04T03:51:36;1.23;;;0.70;;
33104;SDS011;19476;51.448;6.674;2023-06-04T03:54:05;2.35;;;0.75;;
33104;SDS011;19476;51.448;6.674;2023-06-04T03:56:31;3.40;;;0.98;;
33104;SDS011;19476;51.448;6.674;2023-06-04T03:58:57;1.42;;;0.80;;
33104;SDS011;19476;51.448;6.674;2023-06-04T04:01:23;1.10;;;0.70;;
33104;SDS011;19476;51.448;6.674;2023-06-04T04:03:49;1.38;;;0.57;;
33104;SDS011;19476;51.448;6.674;2023-06-04T04:06:16;2.28;;;0.93;;
33104;SDS011;19476;51.448;6.674;2023-06-04T04:08:43;2.33;;;1.13;;
33104;SDS011;19476;51.448;6.674;2023-06-04T04:11:12;1.40;;;0.65;;
33104;SDS011;19476;51.448;6.674;2023-06-04T04:13:41;1.02;;;0.55;;
33104;SDS011;19476;51.448;6.674;2023-06-04T04:16:07;1.42;;;0.70;;
33104;SDS011;19476;51.448;6.674;2023-06-04T04:18:34;2.00;;;0.90;;
33104;SDS011;19476;51.448;6.674;2023-06-04T04:21:02;2.47;;;0.93;;
33104;SDS011;19476;51.448;6.674;2023-06-04T04:23:29;2.78;;;0.90;;
33104;SDS011;19476;51.448;6.674;2023-06-04T04:25:57;1.42;;;0.77;;
33104;SDS011;19476;51.448;6.674;2023-06-04T04:28:24;1.73;;;0.75;;
33104;SDS011;19476;51.448;6.674;2023-06-04T04:30:54;1.30;;;0.75;;
33104;SDS011;19476;51.448;6.674;2023-06-04T04:33:22;1.25;;;0.68;;
33104;SDS011;19476;51.448;6.674;2023-06-04T04:35:49;1.83;;;0.63;;
33104;SDS011;19476;51.448;6.674;2023-06-04T04:38:16;2.38;;;0.70;;
33104;SDS011;19476;51.448;6.674;2023-06-04T04:40:45;3.28;;;0.75;;
33104;SDS011;19476;51.448;6.674;2023-06-04T04:43:12;2.50;;;1.00;;
33104;SDS011;19476;51.448;6.674;2023-06-04T04:45:38;1.95;;;0.82;;
33104;SDS011;19476;51.448;6.674;2023-06-04T04:48:05;1.33;;;0.70;;
33104;SDS011;19476;51.448;6.674;2023-06-04T04:50:30;3.08;;;0.93;;
33104;SDS011;19476;51.448;6.674;2023-06-04T04:52:57;3.33;;;1.02;;
33104;SDS011;19476;51.448;6.674;2023-06-04T04:55:23;2.05;;;1.00;;
33104;SDS011;19476;51.448;6.674;2023-06-04T04:57:49;2.45;;;0.70;;
33104;SDS011;19476;51.448;6.674;2023-06-04T05:00:15;2.72;;;0.70;;
33104;SDS011;19476;51.448;6.674;2023-06-04T05:02:42;1.55;;;0.70;;
33104;SDS011;19476;51.448;6.674;2023-06-04T05:05:08;2.25;;;0.75;;
33104;SDS011;19476;51.448;6.674;2023-06-04T05:07:35;2.22;;;0.80;;
33104;SDS011;19476;51.448;6.674;2023-06-04T05:10:01;1.60;;;0.90;;
33104;SDS011;19476;51.448;6.674;2023-06-04T05:12:29;1.80;;;0.80;;
33104;SDS011;19476;51.448;6.674;2023-06-04T05:14:56;2.40;;;1.00;;
33104;SDS011;19476;51.448;6.674;2023-06-04T05:17:22;2.40;;;0.88;;
33104;SDS011;19476;51.448;6.674;2023-06-04T05:19:55;2.95;;;0.98;;
33104;SDS011;19476;51.448;6.674;2023-06-04T05:22:36;1.70;;;0.70;;
33104;SDS011;19476;51.448;6.674;2023-06-04T05:25:03;1.42;;;0.90;;
33104;SDS011;19476;51.448;6.674;2023-06-04T05:27:30;3.58;;;0.90;;
33104;SDS011;19476;51.448;6.674;2023-06-04T05:29:57;3.00;;;1.00;;
33104;SDS011;19476;51.448;6.674;2023-06-04T05:32:23;3.15;;;0.98;;
33104;SDS011;19476;51.448;6.674;2023-06-04T05:34:53;2.08;;;0.82;;
33104;SDS011;19476;51.448;6.674;2023-06-04T05:37:24;1.50;;;0.80;;
33104;SDS011;19476;51.448;6.674;2023-06-04T05:42:18;1.13;;;0.70;;
33104;SDS011;19476;51.448;6.674;2023-06-04T05:44:44;1.70;;;0.60;;
33104;SDS011;19476;51.448;6.674;2023-06-04T05:47:10;1.67;;;0.80;;
33104;SDS011;19476;51.448;6.674;2023-06-04T05:49:36;1.60;;;0.90;;
33104;SDS011;19476;51.448;6.674;2023-06-04T05:52:03;1.95;;;0.75;;
33104;SDS011;19476;51.448;6.674;2023-06-04T05:54:30;2.67;;;0.77;;
33104;SDS011;19476;51.448;6.674;2023-06-04T05:56:56;1.73;;;0.70;;
33104;SDS011;19476;51.448;6.674;2023-06-04T05:59:21;2.72;;;0.90;;
33104;SDS011;19476;51.448;6.674;2023-06-04T06:01:48;1.52;;;0.80;;
33104;SDS011;19476;51.448;6.674;2023-06-04T06:04:15;1.98;;;0.75;;
33104;SDS011;19476;51.448;6.674;2023-06-04T06:06:43;1.52;;;0.65;;
33104;SDS011;19476;51.448;6.674;2023-06-04T06:09:09;1.67;;;0.70;;
33104;SDS011;19476;51.448;6.674;2023-06-04T06:11:38;2.38;;;0.75;;
33104;SDS011;19476;51.448;6.674;2023-06-04T06:14:04;2.73;;;0.90;;
33104;SDS011;19476;51.448;6.674;2023-06-04T06:16:30;1.02;;;0.60;;
33104;SDS011;19476;51.448;6.674;2023-06-04T06:18:57;1.40;;;0.60;;
33104;SDS011;19476;51.448;6.674;2023-06-04T06:21:24;3.05;;;0.95;;
33104;SDS011;19476;51.448;6.674;2023-06-04T06:23:51;1.33;;;0.70;;
33104;SDS011;19476;51.448;6.674;2023-06-04T06:26:17;2.20;;;0.70;;
33104;SDS011;19476;51.448;6.674;2023-06-04T06:28:43;1.70;;;0.90;;
33104;SDS011;19476;51.448;6.674;2023-06-04T06:31:10;1.55;;;0.90;;
33104;SDS011;19476;51.448;6.674;2023-06-04T06:33:39;2.20;;;1.02;;
33104;SDS011;19476;51.448;6.674;2023-06-04T06:38:32;2.88;;;0.95;;
33104;SDS011;19476;51.448;6.674;2023-06-04T06:40:59;1.27;;;0.80;;
33104;SDS011;19476;51.448;6.674;2023-06-04T06:43:25;2.28;;;1.13;;
33104;SDS011;19476;51.448;6.674;2023-06-04T06:45:50;3.22;;;0.90;;
33104;SDS011;19476;51.448;6.674;2023-06-04T06:48:16;3.00;;;1.08;;
33104;SDS011;19476;51.448;6.674;2023-06-04T06:50:42;2.20;;;0.90;;
33104;SDS011;19476;51.448;6.674;2023-06-04T06:53:08;3.20;;;1.15;;
33104;SDS011;19476;51.448;6.674;2023-06-04T06:55:33;2.60;;;1.35;;
33104;SDS011;19476;51.448;6.674;2023-06-04T06:57:59;2.45;;;1.30;;
33104;SDS011;19476;51.448;6.674;2023-06-04T07:00:26;2.45;;;1.00;;
33104;SDS011;19476;51.448;6.674;2023-06-04T07:02:53;2.58;;;1.08;;
33104;SDS011;19476;51.448;6.674;2023-06-04T07:05:19;1.60;;;0.82;;
33104;SDS011;19476;51.448;6.674;2023-06-04T07:07:44;2.38;;;0.73;;
33104;SDS011;19476;51.448;6.674;2023-06-04T07:10:11;1.88;;;0.82;;
33104;SDS011;19476;51.448;6.674;2023-06-04T07:12:38;3.13;;;1.10;;
33104;SDS011;19476;51.448;6.674;2023-06-04T07:15:04;2.13;;;0.80;;
33104;SDS011;19476;51.448;6.674;2023-06-04T07:17:31;1.52;;;0.75;;
33104;SDS011;19476;51.448;6.674;2023-06-04T07:19:57;2.35;;;0.85;;
33104;SDS011;19476;51.448;6.674;2023-06-04T07:22:23;1.33;;;0.75;;
33104;SDS011;19476;51.448;6.674;2023-06-04T07:24:49;3.05;;;0.82;;
33104;SDS011;19476;51.448;6.674;2023-06-04T07:27:15;2.28;;;0.93;;
33104;SDS011;19476;51.448;6.674;2023-06-04T07:29:43;2.38;;;1.00;;
33104;SDS011;19476;51.448;6.674;2023-06-04T07:32:09;1.67;;;0.80;;
33104;SDS011;19476;51.448;6.674;2023-06-04T07:34:36;1.98;;;0.80;;
33104;SDS011;19476;51.448;6.674;2023-06-04T07:37:03;1.92;;;0.80;;
33104;SDS011;19476;51.448;6.674;2023-06-04T07:39:29;2.10;;;0.93;;
33104;SDS011;19476;51.448;6.674;2023-06-04T07:41:55;1.52;;;0.65;;
33104;SDS011;19476;51.448;6.674;2023-06-04T07:44:20;1.83;;;0.80;;
33104;SDS011;19476;51.448;6.674;2023-06-04T07:46:46;1.55;;;0.80;;
33104;SDS011;19476;51.448;6.674;2023-06-04T07:49:12;1.38;;;0.70;;
33104;SDS011;19476;51.448;6.674;2023-06-04T07:51:38;0.70;;;0.60;;
33104;SDS011;19476;51.448;6.674;2023-06-04T07:54:03;1.48;;;0.80;;
33104;SDS011;19476;51.448;6.674;2023-06-04T07:56:29;1.38;;;0.68;;
33104;SDS011;19476;51.448;6.674;2023-06-04T07:58:55;1.75;;;0.65;;
33104;SDS011;19476;51.448;6.674;2023-06-04T08:01:21;2.15;;;0.80;;
33104;SDS011;19476;51.448;6.674;2023-06-04T08:03:48;2.75;;;0.95;;
33104;SDS011;19476;51.448;6.674;2023-06-04T08:06:15;1.55;;;0.70;;
33104;SDS011;19476;51.448;6.674;2023-06-04T08:08:45;2.03;;;0.90;;
33104;SDS011;19476;51.448;6.674;2023-06-04T08:11:13;1.50;;;0.75;;
33104;SDS011;19476;51.448;6.674;2023-06-04T08:13:40;1.38;;;0.70;;
33104;SDS011;19476;51.448;6.674;2023-06-04T08:16:06;2.08;;;1.00;;
33104;SDS011;19476;51.448;6.674;2023-06-04T08:18:32;1.40;;;0.70;;
33104;SDS011;19476;51.448;6.674;2023-06-04T08:20:58;2.55;;;0.90;;
33104;SDS011;19476;51.448;6.674;2023-06-04T08:23:24;1.10;;;0.60;;
33104;SDS011;19476;51.448;6.674;2023-06-04T08:25:49;1.67;;;0.65;;
33104;SDS011;19476;51.448;6.674;2023-06-04T08:28:15;1.52;;;0.70;;
33104;SDS011;19476;51.448;6.674;2023-06-04T08:30:42;1.33;;;0.88;;
33104;SDS011;19476;51.448;6.674;2023-06-04T08:33:08;4.00;;;0.70;;
33104;SDS011;19476;51.448;6.674;2023-06-04T08:35:33;0.93;;;0.50;;
33104;SDS011;19476;51.448;6.674;2023-06-04T08:37:59;2.03;;;0.70;;
33104;SDS011;19476;51.448;6.674;2023-06-04T08:40:25;2.03;;;0.80;;
33104;SDS011;19476;51.448;6.674;2023-06-04T08:42:51;2.15;;;0.70;;
33104;SDS011;19476;51.448;6.674;2023-06-04T08:45:24;1.42;;;0.65;;
33104;SDS011;19476;51.448;6.674;2023-06-04T08:47:51;2.80;;;1.30;;
33104;SDS011;19476;51.448;6.674;2023-06-04T08:50:19;2.13;;;1.08;;
33104;SDS011;19476;51.448;6.674;2023-06-04T08:52:46;2.00;;;0.80;;
33104;SDS011;19476;51.448;6.674;2023-06-04T08:55:12;2.42;;;0.90;;
33104;SDS011;19476;51.448;6.674;2023-06-04T08:57:39;1.05;;;0.60;;
33104;SDS011;19476;51.448;6.674;2023-06-04T09:00:08;1.92;;;0.75;;
33104;SDS011;19476;51.448;6.674;2023-06-04T09:02:37;0.85;;;0.52;;
33104;SDS011;19476;51.448;6.674;2023-06-04T09:05:04;1.43;;;0.57;;
33104;SDS011;19476;51.448;6.674;2023-06-04T09:07:38;1.60;;;0.70;;
33104;SDS011;19476;51.448;6.674;2023-06-04T09:10:06;1.98;;;0.90;;
33104;SDS011;19476;51.448;6.674;2023-06-04T09:12:37;1.55;;;0.60;;
33104;SDS011;19476;51.448;6.674;2023-06-04T09:15:09;1.10;;;0.63;;
33104;SDS011;19476;51.448;6.674;2023-06-04T09:17:36;1.50;;;0.73;;
33104;SDS011;19476;51.448;6.674;2023-06-04T09:20:02;2.72;;;1.00;;
33104;SDS011;19476;51.448;6.674;2023-06-04T09:22:35;3.10;;;0.77;;
33104;SDS011;19476;51.448;6.674;2023-06-04T09:25:03;1.02;;;0.90;;
33104;SDS011;19476;51.448;6.674;2023-06-04T09:27:40;4.47;;;0.90;;
33104;SDS011;19476;51.448;6.674;2023-06-04T09:30:06;1.15;;;0.70;;
33104;SDS011;19476;51.448;6.674;2023-06-04T09:32:35;1.00;;;0.80;;
33104;SDS011;19476;51.448;6.674;2023-06-04T09:35:08;1.67;;;1.00;;
33104;SDS011;19476;51.448;6.674;2023-06-04T09:37:53;2.05;;;1.10;;
33104;SDS011;19476;51.448;6.674;2023-06-04T09:40:23;3.47;;;0.90;;
33104;SDS011;19476;51.448;6.674;2023-06-04T09:42:50;2.47;;;1.13;;
33104;SDS011;19476;51.448;6.674;2023-06-04T09:45:35;2.13;;;0.80;;
33104;SDS011;19476;51.448;6.674;2023-06-04T09:48:02;2.55;;;1.08;;
33104;SDS011;19476;51.448;6.674;2023-06-04T09:50:33;1.67;;;1.10;;
33104;SDS011;19476;51.448;6.674;2023-06-04T09:53:12;7.57;;;1.48;;
33104;SDS011;19476;51.448;6.674;2023-06-04T09:55:41;2.05;;;1.15;;
33104;SDS011;19476;51.448;6.674;2023-06-04T09:58:08;2.72;;;1.23;;
33104;SDS011;19476;51.448;6.674;2023-06-04T10:00:36;1.70;;;1.10;;
33104;SDS011;19476;51.448;6.674;2023-06-04T10:03:02;3.10;;;1.17;;
33104;SDS011;19476;51.448;6.674;2023-06-04T10:05:30;1.70;;;1.10;;
33104;SDS011;19476;51.448;6.674;2023-06-04T10:07:59;2.42;;;1.23;;
33104;SDS011;19476;51.448;6.674;2023-06-04T10:10:27;2.90;;;1.45;;
33104;SDS011;19476;51.448;6.674;2023-06-04T10:13:00;2.30;;;1.13;;
33104;SDS011;19476;51.448;6.674;2023-06-04T10:15:28;2.30;;;1.30;;
33104;SDS011;19476;51.448;6.674;2023-06-04T10:17:57;2.13;;;1.30;;
33104;SDS011;19476;51.448;6.674;2023-06-04T10:20:24;1.48;;;1.10;;
33104;SDS011;19476;51.448;6.674;2023-06-04T10:22:50;2.13;;;1.25;;
33104;SDS011;19476;51.448;6.674;2023-06-04T10:25:16;4.53;;;1.60;;
33104;SDS011;19476;51.448;6.674;2023-06-04T10:27:43;1.58;;;0.98;;
33104;SDS011;19476;51.448;6.674;2023-06-04T10:30:09;2.33;;;1.20;;
33104;SDS011;19476;51.448;6.674;2023-06-04T10:32:36;3.03;;;1.48;;
33104;SDS011;19476;51.448;6.674;2023-06-04T10:35:03;3.00;;;1.40;;
33104;SDS011;19476;51.448;6.674;2023-06-04T10:37:31;2.85;;;1.25;;
33104;SDS011;19476;51.448;6.674;2023-06-04T10:39:57;2.47;;;1.25;;
33104;SDS011;19476;51.448;6.674;2023-06-04T10:42:24;2.30;;;1.10;;
33104;SDS011;19476;51.448;6.674;2023-06-04T10:44:51;1.65;;;1.10;;
33104;SDS011;19476;51.448;6.674;2023-06-04T10:47:19;2.90;;;1.50;;
33104;SDS011;19476;51.448;6.674;2023-06-04T10:49:52;2.67;;;1.13;;
33104;SDS011;19476;51.448;6.674;2023-06-04T10:52:19;2.88;;;1.25;;
33104;SDS011;19476;51.448;6.674;2023-06-04T10:54:48;2.58;;;1.45;;
33104;SDS011;19476;51.448;6.674;2023-06-04T10:57:16;2.53;;;1.50;;
33104;SDS011;19476;51.448;6.674;2023-06-04T10:59:58;4.03;;;1.60;;
33104;SDS011;19476;51.448;6.674;2023-06-04T11:02:26;1.83;;;1.20;;
33104;SDS011;19476;51.448;6.674;2023-06-04T11:05:01;2.78;;;1.55;;
33104;SDS011;19476;51.448;6.674;2023-06-04T11:07:43;2.60;;;1.50;;
33104;SDS011;19476;51.448;6.674;2023-06-04T11:10:14;2.83;;;1.60;;
33104;SDS011;19476;51.448;6.674;2023-06-04T11:12:47;2.70;;;1.52;;
33104;SDS011;19476;51.448;6.674;2023-06-04T11:15:25;2.28;;;1.10;;
33104;SDS011;19476;51.448;6.674;2023-06-04T11:17:52;1.30;;;1.00;;
33104;SDS011;19476;51.448;6.674;2023-06-04T11:20:21;2.25;;;1.20;;
33104;SDS011;19476;51.448;6.674;2023-06-04T11:22:51;2.58;;;1.50;;
33104;SDS011;19476;51.448;6.674;2023-06-04T11:25:18;3.00;;;1.63;;
33104;SDS011;19476;51.448;6.674;2023-06-04T11:27:45;2.25;;;1.33;;
33104;SDS011;19476;51.448;6.674;2023-06-04T11:30:11;3.42;;;1.50;;
33104;SDS011;19476;51.448;6.674;2023-06-04T11:32:37;3.75;;;1.60;;
33104;SDS011;19476;51.448;6.674;2023-06-04T11:35:03;2.80;;;1.50;;
33104;SDS011;19476;51.448;6.674;2023-06-04T11:37:31;2.53;;;1.20;;
33104;SDS011;19476;51.448;6.674;2023-06-04T11:39:58;2.78;;;1.52;;
33104;SDS011;19476;51.448;6.674;2023-06-04T11:42:25;1.60;;;1.35;;
33104;SDS011;19476;51.448;6.674;2023-06-04T11:44:56;1.92;;;1.27;;
33104;SDS011;19476;51.448;6.674;2023-06-04T11:47:23;1.38;;;1.02;;
33104;SDS011;19476;51.448;6.674;2023-06-04T11:49:55;1.90;;;1.30;;
33104;SDS011;19476;51.448;6.674;2023-06-04T11:52:22;3.35;;;1.30;;
33104;SDS011;19476;51.448;6.674;2023-06-04T11:54:48;1.70;;;1.38;;
33104;SDS011;19476;51.448;6.674;2023-06-04T11:57:14;3.58;;;1.40;;
33104;SDS011;19476;51.448;6.674;2023-06-04T11:59:41;1.85;;;1.10;;
33104;SDS011;19476;51.448;6.674;2023-06-04T12:02:07;2.65;;;1.70;;
33104;SDS011;19476;51.448;6.674;2023-06-04T12:04:33;2.28;;;1.50;;
33104;SDS011;19476;51.448;6.674;2023-06-04T12:07:00;2.28;;;1.60;;
33104;SDS011;19476;51.448;6.674;2023-06-04T12:09:31;2.35;;;1.48;;
33104;SDS011;19476;51.448;6.674;2023-06-04T12:12:04;2.30;;;1.63;;
33104;SDS011;19476;51.448;6.674;2023-06-04T12:14:31;2.10;;;1.67;;
33104;SDS011;19476;51.448;6.674;2023-06-04T12:17:00;2.50;;;1.70;;
33104;SDS011;19476;51.448;6.674;2023-06-04T12:19:30;2.78;;;1.60;;
33104;SDS011;19476;51.448;6.674;2023-06-04T12:22:06;2.90;;;1.40;;
33104;SDS011;19476;51.448;6.674;2023-06-04T12:24:33;2.95;;;1.40;;
33104;SDS011;19476;51.448;6.674;2023-06-04T12:27:08;2.25;;;1.42;;
33104;SDS011;19476;51.448;6.674;2023-06-04T12:29:34;2.03;;;1.40;;
33104;SDS011;19476;51.448;6.674;2023-06-04T12:32:10;2.78;;;1.70;;
33104;SDS011;19476;51.448;6.674;2023-06-04T12:34:40;2.80;;;1.60;;
33104;SDS011;19476;51.448;6.674;2023-06-04T12:37:06;5.18;;;1.92;;
33104;SDS011;19476;51.448;6.674;2023-06-04T12:39:33;2.90;;;2.08;;
33104;SDS011;19476;51.448;6.674;2023-06-04T12:42:01;3.13;;;1.60;;
33104;SDS011;19476;51.448;6.674;2023-06-04T12:44:27;4.32;;;1.73;;
33104;SDS011;19476;51.448;6.674;2023-06-04T12:46:54;2.63;;;1.50;;
33104;SDS011;19476;51.448;6.674;2023-06-04T12:49:20;2.90;;;1.73;;
33104;SDS011;19476;51.448;6.674;2023-06-04T12:51:48;3.20;;;1.50;;
33104;SDS011;19476;51.448;6.674;2023-06-04T12:54:14;2.33;;;1.52;;
33104;SDS011;19476;51.448;6.674;2023-06-04T12:56:46;3.10;;;2.05;;
33104;SDS011;19476;51.448;6.674;2023-06-04T12:59:12;3.23;;;1.83;;
33104;SDS011;19476;51.448;6.674;2023-06-04T13:01:38;3.20;;;1.60;;
33104;SDS011;19476;51.448;6.674;2023-06-04T13:04:04;3.10;;;1.50;;
33104;SDS011;19476;51.448;6.674;2023-06-04T13:06:30;2.30;;;1.63;;
33104;SDS011;19476;51.448;6.674;2023-06-04T13:08:57;2.25;;;1.73;;
33104;SDS011;19476;51.448;6.674;2023-06-04T13:11:23;2.40;;;1.50;;
33104;SDS011;19476;51.448;6.674;2023-06-04T13:13:49;2.85;;;1.80;;
33104;SDS011;19476;51.448;6.674;2023-06-04T13:16:15;2.10;;;1.80;;
33104;SDS011;19476;51.448;6.674;2023-06-04T13:18:41;5.40;;;1.98;;
33104;SDS011;19476;51.448;6.674;2023-06-04T13:21:07;3.63;;;2.40;;
33104;SDS011;19476;51.448;6.674;2023-06-04T13:23:32;4.35;;;2.40;;
33104;SDS011;19476;51.448;6.674;2023-06-04T13:25:58;3.92;;;3.22;;
33104;SDS011;19476;51.448;6.674;2023-06-04T13:28:26;4.60;;;3.03;;
33104;SDS011;19476;51.448;6.674;2023-06-04T13:30:52;4.88;;;2.70;;
33104;SDS011;19476;51.448;6.674;2023-06-04T13:33:17;3.15;;;1.88;;
33104;SDS011;19476;51.448;6.674;2023-06-04T13:35:44;2.47;;;1.65;;
33104;SDS011;19476;51.448;6.674;2023-06-04T13:38:10;2.88;;;1.90;;
33104;SDS011;19476;51.448;6.674;2023-06-04T13:40:37;3.30;;;1.80;;
33104;SDS011;19476;51.448;6.674;2023-06-04T13:43:04;2.90;;;1.58;;
33104;SDS011;19476;51.448;6.674;2023-06-04T13:45:32;2.70;;;1.73;;
33104;SDS011;19476;51.448;6.674;2023-06-04T13:47:58;2.38;;;1.60;;
33104;SDS011;19476;51.448;6.674;2023-06-04T13:50:27;2.28;;;1.40;;
33104;SDS011;19476;51.448;6.674;2023-06-04T13:52:53;2.63;;;1.60;;
33104;SDS011;19476;51.448;6.674;2023-06-04T13:55:19;3.13;;;1.90;;
33104;SDS011;19476;51.448;6.674;2023-06-04T13:57:45;2.35;;;1.60;;
33104;SDS011;19476;51.448;6.674;2023-06-04T14:00:11;3.65;;;2.30;;
33104;SDS011;19476;51.448;6.674;2023-06-04T14:02:39;5.25;;;2.42;;
33104;SDS011;19476;51.448;6.674;2023-06-04T14:05:04;3.17;;;2.33;;
33104;SDS011;19476;51.448;6.674;2023-06-04T14:07:30;3.60;;;2.05;;
33104;SDS011;19476;51.448;6.674;2023-06-04T14:09:56;1.80;;;1.60;;
33104;SDS011;19476;51.448;6.674;2023-06-04T14:12:23;3.22;;;1.70;;
33104;SDS011;19476;51.448;6.674;2023-06-04T14:14:49;3.20;;;1.73;;
33104;SDS011;19476;51.448;6.674;2023-06-04T14:17:15;6.18;;;1.85;;
33104;SDS011;19476;51.448;6.674;2023-06-04T14:19:41;3.38;;;2.10;;
33104;SDS011;19476;51.448;6.674;2023-06-04T14:22:07;2.60;;;1.88;;
33104;SDS011;19476;51.448;6.674;2023-06-04T14:24:33;6.72;;;2.17;;
33104;SDS011;19476;51.448;6.674;2023-06-04T14:26:58;2.80;;;1.88;;
33104;SDS011;19476;51.448;6.674;2023-06-04T14:29:25;5.82;;;1.83;;
33104;SDS011;19476;51.448;6.674;2023-06-04T14:31:51;4.68;;;2.00;;
33104;SDS011;19476;51.448;6.674;2023-06-04T14:34:16;3.10;;;1.75;;
33104;SDS011;19476;51.448;6.674;2023-06-04T14:36:42;3.17;;;1.88;;
33104;SDS011;19476;51.448;6.674;2023-06-04T14:39:08;2.70;;;2.08;;
33104;SDS011;19476;51.448;6.674;2023-06-04T14:41:33;2.95;;;1.73;;
33104;SDS011;19476;51.448;6.674;2023-06-04T14:43:59;2.88;;;1.85;;
33104;SDS011;19476;51.448;6.674;2023-06-04T14:46:25;2.95;;;1.83;;
33104;SDS011;19476;51.448;6.674;2023-06-04T14:48:51;2.35;;;1.80;;
33104;SDS011;19476;51.448;6.674;2023-06-04T14:51:18;3.15;;;1.63;;
33104;SDS011;19476;51.448;6.674;2023-06-04T14:53:48;2.60;;;1.88;;
33104;SDS011;19476;51.448;6.674;2023-06-04T14:56:14;5.05;;;1.70;;
33104;SDS011;19476;51.448;6.674;2023-06-04T14:58:42;2.75;;;1.70;;
33104;SDS011;19476;51.448;6.674;2023-06-04T15:01:08;2.50;;;1.67;;
33104;SDS011;19476;51.448;6.674;2023-06-04T15:03:37;2.53;;;1.73;;
33104;SDS011;19476;51.448;6.674;2023-06-04T15:06:05;2.95;;;1.92;;
33104;SDS011;19476;51.448;6.674;2023-06-04T15:08:32;3.13;;;2.10;;
33104;SDS011;19476;51.448;6.674;2023-06-04T15:10:58;2.40;;;1.77;;